sensor_id;sensor_type;location;lat;lon;timestamp;pressure;altitude;pressure_sealevel;temperature;humidity
53514;BME280;39768;54.148;12.174;2023-11-21T00:14:07;101008.13;;;7.54;77.98
53514;BME280;39768;54.148;12.174;2023-11-21T00:18:09;101001.03;;;7.53;77.44
53514;BME280;39768;54.148;12.174;2023-11-21T00:22:11;101010.84;;;6.97;84.35
53514;BME280;39768;54.148;12.174;2023-11-21T00:26:13;101020.84;;;6.81;81.33
53514;BME280;39768;54.148;12.174;2023-11-21T00:34:49;101018.88;;;7.48;79.54
53514;BME280;39768;54.148;12.174;2023-11-21T00:38:50;101016.34;;;7.42;79.62
53514;BME280;39768;54.148;12.174;2023-11-21T00:42:52;101032.41;;;6.76;80.27
53514;BME280;39768;54.148;12.174;2023-11-21T00:46:54;101019.25;;;7.26;80.45
53514;BME280;39768;54.148;12.174;2023-11-21T00:50:56;101023.97;;;7.61;76.95
53514;BME280;39768;54.148;12.174;2023-11-21T00:54:58;101016.16;;;6.98;79.06
53514;BME280;39768;54.148;12.174;2023-11-21T00:59:01;101026.88;;;7.48;75.53
53514;BME280;39768;54.148;12.174;2023-11-21T01:07:43;101037.94;;;7.23;74.62
53514;BME280;39768;54.148;12.174;2023-11-21T02:06:24;101104.47;;;6.54;79.20
53514;BME280;39768;54.148;12.174;2023-11-21T02:47:31;101138.03;;;7.33;74.32
53514;BME280;39768;54.148;12.174;2023-11-21T02:51:33;101147.59;;;7.47;74.40
53514;BME280;39768;54.148;12.174;2023-11-21T02:55:34;101150.41;;;7.38;74.19
53514;BME280;39768;54.148;12.174;2023-11-21T02:59:36;101151.91;;;7.57;73.04
53514;BME280;39768;54.148;12.174;2023-11-21T03:08:15;101160.03;;;6.80;77.01
53514;BME280;39768;54.148;12.174;2023-11-21T03:16:48;101157.75;;;7.19;76.27
53514;BME280;39768;54.148;12.174;2023-11-21T05:16:38;101307.84;;;7.06;75.20
53514;BME280;39768;54.148;12.174;2023-11-21T05:43:14;101339.16;;;6.81;75.37
53514;BME280;39768;54.148;12.174;2023-11-21T05:47:16;101335.44;;;7.00;73.95
53514;BME280;39768;54.148;12.174;2023-11-21T05:51:19;101341.81;;;6.81;74.05
53514;BME280;39768;54.148;12.174;2023-11-21T05:55:22;101350.81;;;6.61;76.56
53514;BME280;39768;54.148;12.174;2023-11-21T05:59:27;101357.00;;;6.65;76.06
53514;BME280;39768;54.148;12.174;2023-11-21T06:08:06;101363.16;;;6.72;73.38
53514;BME280;39768;54.148;12.174;2023-11-21T06:12:42;101373.91;;;6.56;76.19
53514;BME280;39768;54.148;12.174;2023-11-21T06:16:45;101376.53;;;6.58;76.10
53514;BME280;39768;54.148;12.174;2023-11-21T06:25:17;101378.72;;;5.98;75.69
53514;BME280;39768;54.148;12.174;2023-11-21T06:29:19;101388.47;;;5.98;77.09
53514;BME280;39768;54.148;12.174;2023-11-21T07:59:02;101522.59;;;6.99;77.41
53514;BME280;39768;54.148;12.174;2023-11-21T08:53:54;101593.94;;;5.51;78.80
53514;BME280;39768;54.148;12.174;2023-11-21T08:57:55;101598.38;;;5.81;80.59
53514;BME280;39768;54.148;12.174;2023-11-21T09:06:37;101608.06;;;5.89;78.05
53514;BME280;39768;54.148;12.174;2023-11-21T09:19:21;101626.69;;;5.79;77.93
53514;BME280;39768;54.148;12.174;2023-11-21T09:23:47;101631.09;;;5.98;77.58
53514;BME280;39768;54.148;12.174;2023-11-21T09:27:50;101649.66;;;5.31;76.24
53514;BME280;39768;54.148;12.174;2023-11-21T09:50:23;101684.25;;;5.93;75.17
53514;BME280;39768;54.148;12.174;2023-11-21T09:54:45;101696.50;;;6.74;71.11
53514;BME280;39768;54.148;12.174;2023-11-21T09:58:46;101700.19;;;5.81;76.09
53514;BME280;39768;54.148;12.174;2023-11-21T10:13:06;101713.41;;;5.69;73.36
53514;BME280;39768;54.148;12.174;2023-11-21T10:17:10;101712.56;;;6.25;68.93
53514;BME280;39768;54.148;12.174;2023-11-21T11:07:38;101760.38;;;6.55;68.02
53514;BME280;39768;54.148;12.174;2023-11-21T11:11:43;101763.06;;;6.26;68.03
53514;BME280;39768;54.148;12.174;2023-11-21T11:15:48;101751.47;;;5.59;71.41
53514;BME280;39768;54.148;12.174;2023-11-21T11:19:49;101752.34;;;5.50;72.02
53514;BME280;39768;54.148;12.174;2023-11-21T11:24:05;101748.81;;;5.54;70.39
53514;BME280;39768;54.148;12.174;2023-11-21T11:28:27;101739.09;;;5.52;70.46
53514;BME280;39768;54.148;12.174;2023-11-21T11:32:52;101754.22;;;5.97;71.21
53514;BME280;39768;54.148;12.174;2023-11-21T11:37:02;101745.28;;;5.60;72.45
53514;BME280;39768;54.148;12.174;2023-11-21T11:41:06;101746.19;;;5.74;71.82
53514;BME280;39768;54.148;12.174;2023-11-21T11:45:32;101768.84;;;4.85;72.69
53514;BME280;39768;54.148;12.174;2023-11-21T11:49:34;101772.38;;;4.86;71.48
53514;BME280;39768;54.148;12.174;2023-11-21T11:53:41;101785.19;;;6.03;69.06
53514;BME280;39768;54.148;12.174;2023-11-21T11:57:54;101786.97;;;5.94;67.30
53514;BME280;39768;54.148;12.174;2023-11-21T12:01:57;101799.38;;;6.65;63.90
53514;BME280;39768;54.148;12.174;2023-11-21T12:06:00;101798.41;;;5.69;69.96
53514;BME280;39768;54.148;12.174;2023-11-21T12:10:01;101809.97;;;5.79;65.58
53514;BME280;39768;54.148;12.174;2023-11-21T12:14:03;101810.66;;;5.28;75.67
53514;BME280;39768;54.148;12.174;2023-11-21T12:18:07;101809.63;;;5.10;79.67
53514;BME280;39768;54.148;12.174;2023-11-21T12:28:11;101833.94;;;6.97;71.67
53514;BME280;39768;54.148;12.174;2023-11-21T12:32:13;101841.03;;;6.62;69.37
53514;BME280;39768;54.148;12.174;2023-11-21T12:36:16;101841.81;;;5.83;72.56
53514;BME280;39768;54.148;12.174;2023-11-21T12:40:19;101842.13;;;4.73;71.28
53514;BME280;39768;54.148;12.174;2023-11-21T12:44:20;101852.16;;;5.18;73.53
53514;BME280;39768;54.148;12.174;2023-11-21T12:48:25;101849.53;;;5.19;71.45
53514;BME280;39768;54.148;12.174;2023-11-21T12:52:26;101863.28;;;4.62;73.55
53514;BME280;39768;54.148;12.174;2023-11-21T12:56:28;101867.59;;;6.10;66.33
53514;BME280;39768;54.148;12.174;2023-11-21T13:05:01;101880.72;;;4.40;73.80
53514;BME280;39768;54.148;12.174;2023-11-21T13:09:08;101884.09;;;4.24;74.87
53514;BME280;39768;54.148;12.174;2023-11-21T13:17:50;101899.19;;;4.30;73.19
53514;BME280;39768;54.148;12.174;2023-11-21T13:22:19;101902.97;;;4.56;73.58
53514;BME280;39768;54.148;12.174;2023-11-21T13:26:22;101913.22;;;4.21;75.06
53514;BME280;39768;54.148;12.174;2023-11-21T13:30:25;101925.34;;;4.88;72.16
53514;BME280;39768;54.148;12.174;2023-11-21T13:34:35;101934.50;;;4.29;75.50
53514;BME280;39768;54.148;12.174;2023-11-21T13:38:38;101938.50;;;3.92;75.16
53514;BME280;39768;54.148;12.174;2023-11-21T13:52:20;101941.81;;;4.52;77.37
53514;BME280;39768;54.148;12.174;2023-11-21T13:56:24;101954.91;;;4.37;76.88
53514;BME280;39768;54.148;12.174;2023-11-21T14:05:04;101963.53;;;5.09;74.70
53514;BME280;39768;54.148;12.174;2023-11-21T14:09:10;101968.72;;;4.95;77.24
53514;BME280;39768;54.148;12.174;2023-11-21T14:13:15;101969.84;;;4.29;80.62
53514;BME280;39768;54.148;12.174;2023-11-21T14:17:18;101968.50;;;4.71;77.01
53514;BME280;39768;54.148;12.174;2023-11-21T14:21:19;101980.56;;;5.35;72.99
53514;BME280;39768;54.148;12.174;2023-11-21T14:25:21;101981.91;;;6.21;70.10
53514;BME280;39768;54.148;12.174;2023-11-21T14:29:24;101980.81;;;5.75;70.62
53514;BME280;39768;54.148;12.174;2023-11-21T14:33:25;101990.66;;;5.95;73.23
53514;BME280;39768;54.148;12.174;2023-11-21T14:37:27;102008.38;;;6.00;68.35
53514;BME280;39768;54.148;12.174;2023-11-21T14:41:29;102010.72;;;4.48;79.47
53514;BME280;39768;54.148;12.174;2023-11-21T14:45:33;102021.00;;;4.24;77.80
53514;BME280;39768;54.148;12.174;2023-11-21T14:49:35;102030.47;;;4.79;75.17
53514;BME280;39768;54.148;12.174;2023-11-21T14:54:13;102025.78;;;4.55;74.78
53514;BME280;39768;54.148;12.174;2023-11-21T14:58:18;102032.47;;;4.23;77.56
53514;BME280;39768;54.148;12.174;2023-11-21T15:07:07;102050.06;;;4.16;77.95
53514;BME280;39768;54.148;12.174;2023-11-21T15:20:36;102060.59;;;4.87;76.46
53514;BME280;39768;54.148;12.174;2023-11-21T15:24:38;102068.72;;;4.25;78.01
53514;BME280;39768;54.148;12.174;2023-11-21T15:28:39;102066.84;;;4.90;73.24
53514;BME280;39768;54.148;12.174;2023-11-21T15:32:41;102086.31;;;4.20;76.80
53514;BME280;39768;54.148;12.174;2023-11-21T15:36:43;102081.47;;;4.57;71.84
53514;BME280;39768;54.148;12.174;2023-11-21T15:45:25;102094.22;;;4.89;70.85
53514;BME280;39768;54.148;12.174;2023-11-21T15:49:28;102099.81;;;5.17;71.77
53514;BME280;39768;54.148;12.174;2023-11-21T15:53:31;102112.13;;;5.07;72.54
53514;BME280;39768;54.148;12.174;2023-11-21T15:57:33;102117.50;;;5.16;70.47
53514;BME280;39768;54.148;12.174;2023-11-21T17:02:44;102210.81;;;3.64;77.81
53514;BME280;39768;54.148;12.174;2023-11-21T17:06:46;102220.56;;;4.81;72.67
53514;BME280;39768;54.148;12.174;2023-11-21T17:25:02;102257.81;;;4.90;68.86
53514;BME280;39768;54.148;12.174;2023-11-21T17:29:04;102254.28;;;3.78;72.88
53514;BME280;39768;54.148;12.174;2023-11-21T18:35:43;102359.34;;;3.79;72.65
53514;BME280;39768;54.148;12.174;2023-11-21T18:39:46;102363.19;;;3.11;78.63
53514;BME280;39768;54.148;12.174;2023-11-21T19:45:03;102473.66;;;4.44;63.14
53514;BME280;39768;54.148;12.174;2023-11-21T19:49:04;102473.25;;;4.25;62.96
53514;BME280;39768;54.148;12.174;2023-11-21T19:53:09;102477.50;;;4.15;63.15
53514;BME280;39768;54.148;12.174;2023-11-21T19:57:11;102489.28;;;3.87;64.87
53514;BME280;39768;54.148;12.174;2023-11-21T20:07:53;102504.91;;;3.75;64.58
53514;BME280;39768;54.148;12.174;2023-11-21T20:57:04;102538.31;;;2.65;67.76
53514;BME280;39768;54.148;12.174;2023-11-21T21:16:26;102566.84;;;2.45;67.25
53514;BME280;39768;54.148;12.174;2023-11-21T21:20:27;102562.06;;;2.32;67.40
53514;BME280;39768;54.148;12.174;2023-11-21T21:24:29;102555.00;;;2.01;69.75
53514;BME280;39768;54.148;12.174;2023-11-21T21:28:30;102553.88;;;1.93;68.51
53514;BME280;39768;54.148;12.174;2023-11-21T22:14:13;102625.63;;;1.80;70.22
53514;BME280;39768;54.148;12.174;2023-11-21T22:18:15;102632.56;;;1.49;71.51
53514;BME280;39768;54.148;12.174;2023-11-21T22:46:08;102646.72;;;0.30;87.74
53514;BME280;39768;54.148;12.174;2023-11-21T22:59:11;102655.69;;;1.85;74.47
